Time;durP1;ratioP1;P1;durP2;ratioP2;P2;SDS_P1;SDS_P2;PMS_P1;PMS_P2;Temp;Humidity;BMP_temperature;BMP_pressure;BME280_temperature;BME280_humidity;BME280_pressure;Samples;Min_cycle;Max_cycle;Signal;HPM_P1;HPM_P2
2023/02/14 00:01:36;;;;;;;1999.90;999.90;;;3.10;99.90;;;;;;5113498;28;20019;-72
2023/02/14 00:04:02;;;;;;;1999.90;999.90;;;3.20;99.90;;;;;;5095284;28;20035;-80
2023/02/14 00:06:31;;;;;;;1999.90;999.90;;;3.20;99.90;;;;;;5113331;28;20048;-72
2023/02/14 00:08:57;;;;;;;1999.90;999.90;;;3.10;99.90;;;;;;5112944;28;20114;-72
2023/02/14 00:11:22;;;;;;;1999.90;999.90;;;3.00;99.90;;;;;;5113147;28;20062;-72
2023/02/14 00:16:32;;;;;;;1999.90;999.90;;;2.90;99.90;;;;;;5113378;28;20030;-72
2023/02/14 00:19:04;;;;;;;1999.90;999.90;;;2.90;99.90;;;;;;5113227;28;20103;-72
2023/02/14 00:21:35;;;;;;;1999.90;999.90;;;2.90;99.90;;;;;;5113087;28;20023;-72
2023/02/14 00:24:03;;;;;;;1999.90;999.90;;;2.90;99.90;;;;;;5112913;28;20066;-72
2023/02/14 00:26:29;;;;;;;1999.90;999.90;;;2.90;99.90;;;;;;5113036;28;20127;-72
2023/02/14 00:28:55;;;;;;;1999.90;999.90;;;2.90;99.90;;;;;;5112919;28;20070;-72
2023/02/14 00:31:20;;;;;;;1999.90;999.90;;;2.90;99.90;;;;;;5091610;28;20047;-72
2023/02/14 00:33:46;;;;;;;1999.90;999.90;;;3.00;99.90;;;;;;5072250;28;20103;-72
2023/02/14 00:36:12;;;;;;;1999.90;999.90;;;3.00;99.90;;;;;;5072296;28;20024;-72
2023/02/14 00:38:37;;;;;;;1999.90;999.90;;;3.10;99.90;;;;;;5085755;28;20097;-72
2023/02/14 00:41:03;;;;;;;1999.90;999.90;;;3.20;99.90;;;;;;5092131;28;20027;-72
2023/02/14 00:43:29;;;;;;;1999.90;999.90;;;3.20;99.90;;;;;;5092319;28;20028;-72
2023/02/14 00:45:55;;;;;;;1999.90;999.90;;;3.10;99.90;;;;;;5073910;28;20055;-80
2023/02/14 00:48:21;;;;;;;1999.90;999.90;;;3.10;99.90;;;;;;5092601;28;20024;-72
2023/02/14 00:50:46;;;;;;;1999.90;999.90;;;3.00;99.90;;;;;;5091780;28;20039;-80
2023/02/14 00:53:13;;;;;;;1999.90;999.90;;;3.00;99.90;;;;;;5091406;28;20035;-72
2023/02/14 00:55:38;;;;;;;1999.90;999.90;;;2.90;99.90;;;;;;5092293;28;20059;-72
2023/02/14 00:58:04;;;;;;;1999.90;999.90;;;2.90;99.90;;;;;;5092168;28;20059;-81
2023/02/14 01:00:30;;;;;;;1999.90;999.90;;;2.90;99.90;;;;;;5092143;28;20024;-72
2023/02/14 01:02:56;;;;;;;1999.90;999.90;;;2.90;99.90;;;;;;5092024;28;20140;-80
2023/02/14 01:05:21;;;;;;;1999.90;999.90;;;2.80;99.90;;;;;;5091862;28;20233;-72
2023/02/14 01:07:47;;;;;;;1999.90;999.90;;;2.70;99.90;;;;;;5091999;28;20028;-72
2023/02/14 01:10:12;;;;;;;1999.90;999.90;;;2.70;99.90;;;;;;5092039;28;20020;-80
2023/02/14 01:12:38;;;;;;;1999.90;999.90;;;2.60;99.90;;;;;;5112266;28;20106;-72
2023/02/14 01:15:04;;;;;;;1999.90;999.90;;;2.60;99.90;;;;;;5112343;28;20022;-72
2023/02/14 01:17:30;;;;;;;1999.90;999.90;;;2.60;99.90;;;;;;5111677;28;20480;-72
2023/02/14 01:19:55;;;;;;;1999.90;999.90;;;2.60;99.90;;;;;;5095196;28;20059;-72
2023/02/14 01:22:21;;;;;;;1999.90;999.90;;;2.50;99.90;;;;;;5116830;28;20104;-72
2023/02/14 01:24:47;;;;;;;1999.90;999.90;;;2.50;99.90;;;;;;5116636;28;20018;-72
2023/02/14 01:27:12;;;;;;;1999.90;999.90;;;2.60;99.90;;;;;;5116248;28;20063;-72
2023/02/14 01:29:38;;;;;;;1999.90;999.90;;;2.40;99.90;;;;;;5116257;28;20397;-72
2023/02/14 01:32:03;;;;;;;1999.90;999.90;;;2.40;99.90;;;;;;5083092;28;20029;-72
2023/02/14 01:34:29;;;;;;;1999.90;999.90;;;2.40;99.90;;;;;;5075944;28;20070;-72
2023/02/14 01:36:55;;;;;;;1999.90;999.90;;;2.40;99.90;;;;;;5075620;28;20028;-72
2023/02/14 01:39:20;;;;;;;1999.90;999.90;;;2.50;99.90;;;;;;5095080;28;20030;-71
2023/02/14 01:41:47;;;;;;;1999.90;999.90;;;2.50;99.90;;;;;;5095756;28;20036;-71
2023/02/14 01:44:13;;;;;;;1999.90;999.90;;;2.60;99.90;;;;;;5095897;28;20123;-71
2023/02/14 01:46:40;;;;;;;1999.90;999.90;;;2.70;99.90;;;;;;5095656;28;20508;-72
2023/02/14 01:49:06;;;;;;;1999.90;999.90;;;2.80;99.90;;;;;;5095456;28;20101;-80
2023/02/14 01:51:34;;;;;;;1999.90;999.90;;;2.80;99.90;;;;;;5095038;28;20024;-80
2023/02/14 01:54:01;;;;;;;1999.90;999.90;;;3.00;99.90;;;;;;5095492;28;20400;-72
2023/02/14 01:56:34;;;;;;;1999.90;999.90;;;3.10;99.90;;;;;;5095818;28;20020;-72
2023/02/14 01:59:02;;;;;;;1999.90;999.90;;;3.10;99.90;;;;;;5095342;28;20020;-80
2023/02/14 02:01:29;;;;;;;1999.90;999.90;;;3.20;99.90;;;;;;5095558;28;20404;-80
2023/02/14 02:03:58;;;;;;;1999.90;999.90;;;3.20;99.90;;;;;;5095391;28;20024;-72
2023/02/14 02:06:29;;;;;;;1999.90;999.90;;;3.20;99.90;;;;;;5095711;28;20028;-71
2023/02/14 02:09:17;;;;;;;1999.90;999.90;;;3.20;99.90;;;;;;5095229;28;20032;-72
2023/02/14 02:11:43;;;;;;;1999.90;999.90;;;3.10;99.90;;;;;;5095221;28;20028;-80
2023/02/14 02:14:14;;;;;;;1999.90;999.90;;;3.00;99.90;;;;;;5095523;28;20095;-71
2023/02/14 02:16:57;;;;;;;1999.90;999.90;;;2.90;99.90;;;;;;5095535;28;20058;-72
2023/02/14 02:19:37;;;;;;;1999.90;999.90;;;2.80;99.90;;;;;;5095133;28;20092;-71
2023/02/14 02:22:37;;;;;;;1999.90;999.90;;;2.80;99.90;;;;;;5095008;28;20020;-71
2023/02/14 02:25:39;;;;;;;1999.90;999.90;;;2.80;99.90;;;;;;5094951;28;20024;-80
2023/02/14 02:28:27;;;;;;;1999.90;999.90;;;2.90;99.90;;;;;;5093748;28;20028;-80
2023/02/14 02:31:10;;;;;;;1999.90;999.90;;;3.00;99.90;;;;;;5088176;28;20489;-71
2023/02/14 02:34:07;;;;;;;1999.90;999.90;;;3.10;99.90;;;;;;5073312;28;20027;-72
2023/02/14 02:36:55;;;;;;;1999.90;999.90;;;3.20;99.90;;;;;;5074607;28;20081;-71
2023/02/14 02:39:33;;;;;;;1999.90;999.90;;;3.20;99.90;;;;;;5093666;28;20062;-71
2023/02/14 02:42:17;;;;;;;1999.90;999.90;;;3.20;99.90;;;;;;5094555;28;20113;-80
2023/02/14 02:45:10;;;;;;;1999.90;999.90;;;3.20;99.90;;;;;;5094651;28;20032;-72
2023/02/14 02:47:43;;;;;;;1999.90;999.90;;;3.20;99.90;;;;;;5074368;28;20029;-72
2023/02/14 02:53:31;;;;;;;1999.90;999.90;;;3.30;99.90;;;;;;5073588;28;20032;-80
2023/02/14 02:58:56;;;;;;;1999.90;999.90;;;3.30;99.90;;;;;;5074296;28;20036;-72
2023/02/14 03:01:29;;;;;;;1999.90;999.90;;;3.30;99.90;;;;;;5074345;28;20033;-72
2023/02/14 03:06:44;;;;;;;1999.90;999.90;;;3.30;99.90;;;;;;5074672;28;20086;-80
2023/02/14 03:09:30;;;;;;;1999.90;999.90;;;3.30;99.90;;;;;;5073615;28;20526;-72
2023/02/14 03:12:17;;;;;;;1999.90;999.90;;;3.30;99.90;;;;;;5073661;28;20033;-72
2023/02/14 03:15:01;;;;;;;1999.90;999.90;;;3.30;99.90;;;;;;5074059;28;20021;-71
2023/02/14 03:17:43;;;;;;;1999.90;999.90;;;3.40;99.90;;;;;;5073806;28;20028;-80
2023/02/14 03:20:46;;;;;;;1999.90;999.90;;;3.40;99.90;;;;;;5073867;28;20028;-71
2023/02/14 03:23:39;;;;;;;1999.90;999.90;;;3.40;99.90;;;;;;5073326;28;20055;-72
2023/02/14 03:26:15;;;;;;;1999.90;999.90;;;3.50;99.90;;;;;;5073737;28;20023;-80
2023/02/14 03:29:15;;;;;;;1999.90;999.90;;;3.50;99.90;;;;;;5073480;28;20427;-71
2023/02/14 03:32:02;;;;;;;1999.90;999.90;;;3.30;99.90;;;;;;5073236;28;20035;-80
2023/02/14 03:34:42;;;;;;;1999.90;999.90;;;3.30;99.90;;;;;;5073754;28;20477;-72
2023/02/14 03:37:09;;;;;;;1999.90;999.90;;;3.20;99.90;;;;;;5074221;28;20040;-72
2023/02/14 03:39:57;;;;;;;1999.90;999.90;;;3.10;99.90;;;;;;5093498;28;20468;-72
2023/02/14 03:42:31;;;;;;;1999.90;999.90;;;3.10;99.90;;;;;;5093053;28;20028;-72
2023/02/14 03:44:59;;;;;;;1999.90;999.90;;;3.10;99.90;;;;;;5093124;28;20044;-71
2023/02/14 03:47:30;;;;;;;1999.90;999.90;;;3.10;99.90;;;;;;5093374;28;20039;-80
2023/02/14 03:50:01;;;;;;;1999.90;999.90;;;3.00;99.90;;;;;;5093461;28;20563;-72
2023/02/14 03:52:29;;;;;;;1999.90;999.90;;;3.00;99.90;;;;;;5092979;28;20028;-72
2023/02/14 03:54:57;;;;;;;1999.90;999.90;;;2.90;99.90;;;;;;5093393;28;20083;-72
2023/02/14 03:57:43;;;;;;;1999.90;999.90;;;2.90;99.90;;;;;;5093128;28;20125;-72
2023/02/14 04:00:10;;;;;;;1999.90;999.90;;;2.90;99.90;;;;;;5093274;28;20016;-80
2023/02/14 04:02:37;;;;;;;1999.90;999.90;;;2.80;99.90;;;;;;5093135;28;20046;-80
2023/02/14 04:05:10;;;;;;;1999.90;999.90;;;2.80;99.90;;;;;;5093017;28;20395;-72
2023/02/14 04:07:48;;;;;;;1999.90;999.90;;;3.00;99.90;;;;;;5092884;28;20039;-72
2023/02/14 04:10:15;;;;;;;1999.90;999.90;;;3.10;99.90;;;;;;5092939;28;20089;-79
2023/02/14 04:12:41;;;;;;;1999.90;999.90;;;3.20;99.90;;;;;;5093128;28;20102;-72
2023/02/14 04:15:07;;;;;;;1999.90;999.90;;;3.30;99.90;;;;;;5091367;28;20142;-71
2023/02/14 04:20:17;;;;;;;1999.90;999.90;;;3.40;99.90;;;;;;5092376;28;20027;-72
2023/02/14 04:22:45;;;;;;;1999.90;999.90;;;3.40;99.90;;;;;;5093085;28;20099;-80
2023/02/14 04:25:11;;;;;;;1999.90;999.90;;;3.50;99.90;;;;;;5092821;28;20012;-71
2023/02/14 04:27:36;;;;;;;1999.90;999.90;;;3.60;99.90;;;;;;5092451;28;20439;-72
2023/02/14 04:30:02;;;;;;;1999.90;999.90;;;3.70;99.90;;;;;;5092244;28;20054;-71
2023/02/14 04:32:28;;;;;;;1999.90;999.90;;;3.80;99.90;;;;;;5072727;28;20036;-72
2023/02/14 04:34:54;;;;;;;1999.90;999.90;;;3.80;99.90;;;;;;5072420;28;20481;-72
2023/02/14 04:37:19;;;;;;;1999.90;999.90;;;3.80;99.90;;;;;;5074586;28;20039;-72
2023/02/14 04:39:45;;;;;;;1999.90;999.90;;;3.90;99.90;;;;;;5092365;28;20093;-72
2023/02/14 04:42:11;;;;;;;1999.90;999.90;;;4.00;99.90;;;;;;5092260;28;20114;-72
2023/02/14 04:44:37;;;;;;;1999.90;999.90;;;3.90;99.90;;;;;;5092365;28;20115;-72
2023/02/14 04:47:03;;;;;;;1999.90;999.90;;;3.90;99.90;;;;;;5092320;28;20077;-71
2023/02/14 04:49:29;;;;;;;1999.90;999.90;;;3.90;99.90;;;;;;5092037;28;20032;-72
2023/02/14 04:51:55;;;;;;;1999.90;999.90;;;3.90;99.90;;;;;;5092518;28;20031;-72
2023/02/14 04:54:21;;;;;;;1999.90;999.90;;;3.90;99.90;;;;;;5090786;28;20102;-72
2023/02/14 04:56:46;;;;;;;1999.90;999.90;;;3.80;99.90;;;;;;5092493;28;20535;-72
2023/02/14 04:59:13;;;;;;;1999.90;999.90;;;3.70;99.90;;;;;;5090818;28;20511;-72
2023/02/14 05:01:39;;;;;;;1999.90;999.90;;;3.60;99.90;;;;;;5092474;28;20032;-80
2023/02/14 05:04:05;;;;;;;1999.90;999.90;;;3.40;99.90;;;;;;5092526;28;20434;-80
2023/02/14 05:06:31;;;;;;;1999.90;999.90;;;3.30;99.90;;;;;;5092140;28;20036;-72
2023/02/14 05:08:57;;;;;;;1999.90;999.90;;;3.20;99.90;;;;;;5091850;28;20480;-72
2023/02/14 05:11:23;;;;;;;1999.90;999.90;;;3.10;99.90;;;;;;5092113;28;20029;-79
2023/02/14 05:13:49;;;;;;;1999.90;999.90;;;3.00;99.90;;;;;;5092004;28;20020;-80
2023/02/14 05:16:15;;;;;;;1999.90;999.90;;;3.00;99.90;;;;;;5092111;28;20095;-79
2023/02/14 05:18:40;;;;;;;1999.90;999.90;;;3.00;99.90;;;;;;5092140;28;20024;-72
2023/02/14 05:21:06;;;;;;;1999.90;999.90;;;3.00;99.90;;;;;;5092055;28;20073;-72
2023/02/14 05:23:32;;;;;;;1999.90;999.90;;;3.10;99.90;;;;;;5092022;28;20528;-72
2023/02/14 05:25:58;;;;;;;1999.90;999.90;;;3.10;99.90;;;;;;5091859;28;20028;-80
2023/02/14 05:28:23;;;;;;;1999.90;999.90;;;3.30;99.90;;;;;;5091972;28;20469;-72
2023/02/14 05:30:50;;;;;;;1999.90;999.90;;;3.20;99.90;;;;;;5085953;28;20027;-80
2023/02/14 05:33:16;;;;;;;1999.90;999.90;;;3.20;99.90;;;;;;5071862;28;20032;-72
2023/02/14 05:35:42;;;;;;;1999.90;999.90;;;3.00;99.90;;;;;;5103894;28;20031;-72
2023/02/14 05:38:08;;;;;;;1999.90;999.90;;;3.00;99.90;;;;;;5102439;28;20039;-72
2023/02/14 05:40:33;;;;;;;1999.90;999.90;;;3.00;99.90;;;;;;5092049;28;20056;-71
2023/02/14 05:42:59;;;;;;;1999.90;999.90;;;3.00;99.90;;;;;;5091569;28;20455;-72
2023/02/14 05:45:25;;;;;;;1999.90;999.90;;;3.10;99.90;;;;;;5091291;28;20523;-72
2023/02/14 05:47:50;;;;;;;1999.90;999.90;;;3.10;99.90;;;;;;5090971;28;20408;-72
2023/02/14 05:50:17;;;;;;;1999.90;999.90;;;3.20;99.90;;;;;;5091684;28;20020;-72
2023/02/14 05:52:43;;;;;;;1999.90;999.90;;;3.30;99.90;;;;;;5091694;28;20020;-72
2023/02/14 05:55:09;;;;;;;1999.90;999.90;;;3.20;99.90;;;;;;5091231;28;20032;-72
2023/02/14 05:57:35;;;;;;;1999.90;999.90;;;3.20;99.90;;;;;;5090174;28;20020;-72
2023/02/14 06:00:04;;;;;;;1999.90;999.90;;;3.20;99.90;;;;;;5090163;28;20035;-71
2023/02/14 06:02:29;;;;;;;1999.90;999.90;;;3.10;99.90;;;;;;5091490;28;20024;-72
2023/02/14 06:04:55;;;;;;;1999.90;999.90;;;3.10;99.90;;;;;;5091513;28;20024;-72
2023/02/14 06:07:21;;;;;;;1999.90;999.90;;;3.10;99.90;;;;;;5094855;28;20500;-80
2023/02/14 06:09:46;;;;;;;1999.90;999.90;;;3.10;99.90;;;;;;5095042;28;20040;-80
2023/02/14 06:12:12;;;;;;;1999.90;999.90;;;3.10;99.90;;;;;;5095165;28;20465;-71
2023/02/14 06:14:37;;;;;;;1999.90;999.90;;;3.00;99.90;;;;;;5095474;28;20028;-72
2023/02/14 06:17:03;;;;;;;1999.90;999.90;;;3.00;99.90;;;;;;5094852;28;20067;-72
2023/02/14 06:19:29;;;;;;;1999.90;999.90;;;3.00;99.90;;;;;;5094942;28;20101;-80
2023/02/14 06:21:54;;;;;;;1999.90;999.90;;;3.00;99.90;;;;;;5094963;28;20373;-70
2023/02/14 06:24:20;;;;;;;1999.90;999.90;;;3.00;99.90;;;;;;5094888;28;20036;-72
2023/02/14 06:26:46;;;;;;;1999.90;999.90;;;3.00;99.90;;;;;;5095073;28;20106;-72
2023/02/14 06:29:11;;;;;;;1999.90;999.90;;;3.00;99.90;;;;;;5094616;28;20403;-79
2023/02/14 06:31:37;;;;;;;1999.90;999.90;;;3.00;99.90;;;;;;5088379;28;20024;-71
2023/02/14 06:34:02;;;;;;;1999.90;999.90;;;3.00;99.90;;;;;;5099599;28;20024;-80
2023/02/14 06:36:28;;;;;;;1999.90;999.90;;;3.10;99.90;;;;;;5079644;28;20111;-80
2023/02/14 06:38:54;;;;;;;1999.90;999.90;;;3.20;99.90;;;;;;5087862;28;20492;-80
2023/02/14 06:41:20;;;;;;;1999.90;999.90;;;3.20;99.90;;;;;;5094039;28;20540;-80
2023/02/14 06:43:49;;;;;;;1999.90;999.90;;;3.20;99.90;;;;;;5094008;28;20036;-80
2023/02/14 06:46:16;;;;;;;1999.90;999.90;;;3.20;99.90;;;;;;5083686;28;20062;-71
2023/02/14 06:48:42;;;;;;;1999.90;999.90;;;3.20;99.90;;;;;;5083700;28;20036;-72
2023/02/14 06:51:08;;;;;;;1999.90;999.90;;;3.20;99.90;;;;;;5078901;28;20032;-74
2023/02/14 06:53:34;;;;;;;1999.90;999.90;;;3.20;99.90;;;;;;5099347;28;20101;-81
2023/02/14 06:55:59;;;;;;;1999.90;999.90;;;3.30;99.90;;;;;;5103680;28;20086;-81
2023/02/14 06:58:25;;;;;;;1999.90;999.90;;;3.30;99.90;;;;;;5096131;28;20134;-72
2023/02/14 07:00:53;;;;;;;1999.90;999.90;;;3.40;99.90;;;;;;5100879;28;20032;-72
2023/02/14 07:03:18;;;;;;;1999.90;999.90;;;3.40;99.90;;;;;;5088922;28;20036;-79
2023/02/14 07:05:44;;;;;;;1999.90;999.90;;;3.40;99.90;;;;;;5096499;28;20035;-80
2023/02/14 07:08:10;;;;;;;1999.90;999.90;;;3.40;99.90;;;;;;5089967;28;20044;-76
2023/02/14 07:10:36;;;;;;;1999.90;999.90;;;3.30;99.90;;;;;;5102026;28;20016;-73
2023/02/14 07:13:02;;;;;;;1999.90;999.90;;;3.30;99.90;;;;;;5093451;28;20027;-72
2023/02/14 07:15:27;;;;;;;1999.90;999.90;;;3.30;99.90;;;;;;5081404;28;20074;-81
2023/02/14 07:17:53;;;;;;;1999.90;999.90;;;3.30;99.90;;;;;;5082987;28;20074;-77
2023/02/14 07:20:19;;;;;;;1999.90;999.90;;;3.30;99.90;;;;;;5087699;28;20496;-73
2023/02/14 07:22:44;;;;;;;1999.90;999.90;;;3.30;99.90;;;;;;5090196;28;20039;-80
2023/02/14 07:25:11;;;;;;;1999.90;999.90;;;3.30;99.90;;;;;;5085092;28;20105;-72
2023/02/14 07:27:37;;;;;;;1999.90;999.90;;;3.30;99.90;;;;;;5089274;28;20129;-72
2023/02/14 07:30:04;;;;;;;1999.90;999.90;;;3.30;99.90;;;;;;5091382;28;20388;-72
2023/02/14 07:32:30;;;;;;;1999.90;999.90;;;3.40;99.90;;;;;;5087956;28;20032;-80
2023/02/14 07:34:56;;;;;;;1999.90;999.90;;;3.50;99.90;;;;;;5097213;28;20028;-80
2023/02/14 07:37:22;;;;;;;1999.90;999.90;;;3.60;99.90;;;;;;5094806;28;20365;-72
2023/02/14 07:39:47;;;;;;;1999.90;999.90;;;3.70;99.90;;;;;;5088894;28;20040;-72
2023/02/14 07:42:13;;;;;;;1999.90;999.90;;;3.60;99.90;;;;;;5090653;28;20148;-81
2023/02/14 07:44:39;;;;;;;1999.90;999.90;;;3.80;99.90;;;;;;5090999;28;20487;-80
2023/02/14 07:47:06;;;;;;;1999.90;999.90;;;3.90;99.90;;;;;;5103905;28;20484;-72
2023/02/14 07:49:33;;;;;;;1999.90;999.90;;;4.00;99.90;;;;;;5090406;28;20035;-72
2023/02/14 07:51:58;;;;;;;1999.90;999.90;;;4.10;99.90;;;;;;5086706;28;20048;-73
2023/02/14 07:54:24;;;;;;;1999.90;999.90;;;4.10;99.90;;;;;;5086290;28;20028;-81
2023/02/14 07:56:50;;;;;;;1999.90;999.90;;;4.10;99.90;;;;;;5089102;28;20212;-79
2023/02/14 07:59:15;;;;;;;1999.90;999.90;;;4.20;99.90;;;;;;5093388;28;20048;-72
2023/02/14 08:01:41;;;;;;;1999.90;999.90;;;4.40;99.90;;;;;;5089780;28;20109;-77
2023/02/14 08:04:07;;;;;;;1999.90;999.90;;;4.50;99.90;;;;;;5074287;28;20523;-72
2023/02/14 08:06:32;;;;;;;1999.90;999.90;;;4.60;99.90;;;;;;5079146;28;20039;-72
2023/02/14 08:08:58;;;;;;;1999.90;999.90;;;4.60;99.90;;;;;;5088124;28;20040;-72
2023/02/14 08:14:08;;;;;;;1999.90;999.90;;;4.80;99.90;;;;;;5080143;28;20035;-79
2023/02/14 08:16:33;;;;;;;1999.90;999.90;;;4.90;99.90;;;;;;5085135;28;20372;-72
2023/02/14 08:19:00;;;;;;;1999.90;999.90;;;5.00;99.90;;;;;;5086667;28;20023;-73
2023/02/14 08:21:27;;;;;;;1999.90;999.90;;;5.40;99.90;;;;;;5093144;28;20115;-73
2023/02/14 08:23:52;;;;;;;1999.90;999.90;;;6.50;99.90;;;;;;5077873;28;20492;-82
2023/02/14 08:26:18;;;;;;;1999.90;999.90;;;8.00;99.90;;;;;;5093012;28;20078;-81
2023/02/14 08:28:44;;;;;;;1999.90;999.90;;;9.30;99.90;;;;;;5084494;28;20044;-73
2023/02/14 08:31:10;;;;;;;1999.90;999.90;;;9.90;99.90;;;;;;5081540;28;20134;-71
2023/02/14 08:33:36;;;;;;;1999.90;999.90;;;9.90;99.90;;;;;;5082775;28;20028;-72
2023/02/14 08:36:02;;;;;;;1999.90;999.90;;;10.50;99.90;;;;;;5085121;28;20036;-73
2023/02/14 08:38:28;;;;;;;1999.90;999.90;;;10.30;99.90;;;;;;5079685;28;20740;-72
2023/02/14 08:40:58;;;;;;;1999.90;999.90;;;8.30;99.90;;;;;;5078662;28;20031;-81
2023/02/14 08:43:23;;;;;;;1999.90;999.90;;;7.20;99.90;;;;;;5079915;28;20031;-72
2023/02/14 08:45:52;;;;;;;1999.90;999.90;;;6.70;99.90;;;;;;5076147;28;20064;-72
2023/02/14 08:48:18;;;;;;;1999.90;999.90;;;6.60;99.90;;;;;;5086551;28;20468;-80
2023/02/14 08:50:44;;;;;;;1999.90;999.90;;;6.70;99.90;;;;;;5076268;28;20066;-81
2023/02/14 08:53:11;;;;;;;1999.90;999.90;;;6.80;99.90;;;;;;5087789;28;20039;-72
2023/02/14 08:55:38;;;;;;;1999.90;999.90;;;7.20;99.90;;;;;;5088153;28;20127;-73
2023/02/14 08:58:04;;;;;;;1999.90;999.90;;;9.10;99.90;;;;;;5085084;28;20020;-73
2023/02/14 09:00:31;;;;;;;1999.90;999.90;;;9.90;99.90;;;;;;5073386;28;20039;-73
2023/02/14 09:02:58;;;;;;;1999.90;999.90;;;9.40;99.90;;;;;;5079858;28;20025;-81
2023/02/14 09:05:23;;;;;;;1999.90;999.90;;;8.80;99.90;;;;;;5085807;28;20035;-79
2023/02/14 09:07:50;;;;;;;1999.90;999.90;;;8.50;99.90;;;;;;5084856;28;20392;-72
2023/02/14 09:10:17;;;;;;;1999.90;999.90;;;8.30;99.90;;;;;;5086239;28;20440;-81
2023/02/14 09:12:43;;;;;;;1999.90;999.90;;;8.10;99.90;;;;;;5087039;28;20069;-72
2023/02/14 09:15:10;;;;;;;1999.90;999.90;;;8.10;99.90;;;;;;5087225;28;20035;-77
2023/02/14 09:17:37;;;;;;;1999.90;999.90;;;8.10;99.90;;;;;;5086794;28;20035;-73
2023/02/14 09:20:06;;;;;;;1999.90;999.90;;;8.20;99.90;;;;;;5079119;28;20107;-80
2023/02/14 09:22:33;;;;;;;1999.90;999.90;;;8.20;99.90;;;;;;5080894;28;20036;-73
2023/02/14 09:24:59;;;;;;;1999.90;999.90;;;8.30;99.90;;;;;;5081654;28;20036;-80
2023/02/14 09:27:26;;;;;;;1999.90;999.90;;;8.70;99.90;;;;;;5075991;28;20029;-73
2023/02/14 09:29:51;;;;;;;1999.90;999.90;;;8.80;99.90;;;;;;5083270;28;20063;-77
2023/02/14 09:32:17;;;;;;;1999.90;999.90;;;8.80;99.90;;;;;;5091940;28;20023;-73
2023/02/14 09:34:43;;;;;;;1999.90;999.90;;;8.80;99.90;;;;;;5080088;28;20497;-73
2023/02/14 09:37:10;;;;;;;1999.90;999.90;;;9.00;99.90;;;;;;5082962;28;20111;-73
2023/02/14 09:39:36;;;;;;;1999.90;999.90;;;9.30;99.90;;;;;;5077940;28;20024;-73
2023/02/14 09:42:20;;;;;;;1999.90;999.90;;;10.20;99.90;;;;;;5085550;28;20043;-73
2023/02/14 09:45:29;;;;;;;1999.90;999.90;;;11.30;99.90;;;;;;5074266;28;20520;-79
2023/02/14 09:48:06;;;;;;;1999.90;999.90;;;11.20;99.90;;;;;;5087892;28;20081;-73
2023/02/14 09:50:53;;;;;;;1999.90;999.90;;;11.00;99.90;;;;;;5085591;28;20044;-73
2023/02/14 09:53:31;;;;;;;1999.90;999.90;;;10.50;99.90;;;;;;5081389;28;20174;-77
2023/02/14 09:56:28;;;;;;;1999.90;999.90;;;10.70;99.90;;;;;;5085351;28;20027;-79
2023/02/14 09:59:15;;;;;;;1999.90;999.90;;;10.40;99.90;;;;;;5085069;28;20407;-78
2023/02/14 10:01:42;;;;;;;1999.90;999.90;;;10.00;99.90;;;;;;5082678;28;20024;-72
2023/02/14 10:04:41;;;;;;;1999.90;999.90;;;10.10;99.90;;;;;;5080691;28;20401;-72
2023/02/14 10:07:16;;;;;;;1999.90;999.90;;;10.30;99.90;;;;;;5084268;28;20047;-72
2023/02/14 10:10:10;;;;;;;1999.90;999.90;;;10.20;99.90;;;;;;5080430;28;20127;-76
2023/02/14 10:12:42;;;;;;;1999.90;999.90;;;10.10;99.90;;;;;;5080376;28;20494;-72
2023/02/14 10:15:16;;;;;;;1999.90;999.90;;;10.00;99.90;;;;;;5088815;28;20038;-72
2023/02/14 10:17:48;;;;;;;1999.90;999.90;;;10.20;99.90;;;;;;5073786;28;20492;-77
2023/02/14 10:20:24;;;;;;;1999.90;999.90;;;10.10;99.90;;;;;;5078837;28;20496;-77
2023/02/14 10:22:58;;;;;;;1999.90;999.90;;;10.30;99.90;;;;;;5087593;28;20506;-77
2023/02/14 10:25:43;;;;;;;1999.90;999.90;;;10.20;99.90;;;;;;5084935;28;20487;-75
2023/02/14 10:28:12;;;;;;;1999.90;999.90;;;10.50;99.90;;;;;;5084992;28;20031;-72
2023/02/14 10:30:42;;;;;;;1999.90;999.90;;;10.80;99.90;;;;;;5079713;28;20036;-78
2023/02/14 10:33:16;;;;;;;1999.90;999.90;;;10.90;99.90;;;;;;5082343;28;20020;-77
2023/02/14 10:35:51;;;;;;;1999.90;999.90;;;11.00;99.90;;;;;;5082228;28;20103;-80
2023/02/14 10:38:39;;;;;;;1999.90;999.90;;;11.10;99.90;;;;;;5089402;28;20039;-79
2023/02/14 10:41:27;;;;;;;1999.90;999.90;;;10.90;99.90;;;;;;5084852;28;20028;-79
2023/02/14 10:43:55;;;;;;;1999.90;999.90;;;11.10;99.90;;;;;;5086020;28;20381;-77
2023/02/14 10:46:48;;;;;;;1999.90;999.90;;;11.00;99.90;;;;;;5084212;28;20052;-78
2023/02/14 10:49:20;;;;;;;1999.90;999.90;;;11.20;99.90;;;;;;5080920;28;20027;-74
2023/02/14 10:51:52;;;;;;;1999.90;999.90;;;11.40;99.90;;;;;;5094654;28;20083;-72
2023/02/14 10:54:19;;;;;;;1999.90;999.90;;;11.40;99.90;;;;;;5088312;28;20484;-72
2023/02/14 10:56:59;;;;;;;1999.90;999.90;;;11.40;99.90;;;;;;5081199;28;20055;-80
2023/02/14 10:59:29;;;;;;;1999.90;999.90;;;11.40;99.90;;;;;;5076045;28;20033;-81
2023/02/14 11:01:57;;;;;;;1999.90;999.90;;;11.50;99.90;;;;;;5096196;28;20028;-82
2023/02/14 11:04:24;;;;;;;1999.90;999.90;;;11.70;99.90;;;;;;5088951;28;20036;-83
2023/02/14 11:06:50;;;;;;;1999.90;999.90;;;11.70;99.90;;;;;;5091656;28;20105;-74
2023/02/14 11:09:19;;;;;;;1999.90;999.90;;;11.60;99.90;;;;;;5090340;28;20028;-83
2023/02/14 11:11:55;;;;;;;1999.90;999.90;;;11.80;99.90;;;;;;5087694;28;20459;-81
2023/02/14 11:14:28;;;;;;;1999.90;999.90;;;12.00;99.90;;;;;;5082393;28;20547;-74
2023/02/14 11:16:54;;;;;;;;;;;11.80;99.90;;;;;;5088984;28;20020;-83
2023/02/14 11:19:22;;;;;;;1999.90;999.90;;;11.90;99.90;;;;;;5094645;28;19923;-72
2023/02/14 11:21:52;;;;;;;1999.90;999.90;;;11.90;99.90;;;;;;5089540;28;20101;-82
2023/02/14 11:24:20;;;;;;;1999.90;999.90;;;12.20;99.90;;;;;;5091465;28;20039;-81
2023/02/14 11:26:48;;;;;;;1999.90;999.90;;;12.40;99.90;;;;;;5089059;28;20491;-81
2023/02/14 11:29:30;;;;;;;1999.90;999.90;;;12.60;99.90;;;;;;5091247;28;20046;-81
2023/02/14 11:32:05;;;;;;;1999.90;999.90;;;12.50;99.90;;;;;;5087347;28;20016;-72
2023/02/14 11:34:39;;;;;;;1999.90;999.90;;;12.80;99.90;;;;;;5083734;28;20507;-72
2023/02/14 11:37:24;;;;;;;1999.90;999.90;;;12.60;99.90;;;;;;5080474;28;20024;-72
2023/02/14 11:39:53;;;;;;;1999.90;999.90;;;12.50;99.90;;;;;;5082898;28;20055;-80
2023/02/14 11:42:39;;;;;;;1999.90;999.90;;;12.80;99.90;;;;;;5082101;28;20031;-81
2023/02/14 11:45:05;;;;;;;1999.90;999.90;;;13.00;99.90;;;;;;5085264;28;20056;-81
2023/02/14 11:47:40;;;;;;;1999.90;999.90;;;13.10;99.90;;;;;;5090014;28;20016;-73
2023/02/14 11:50:22;;;;;;;1999.90;999.90;;;13.20;99.90;;;;;;5087219;28;20129;-80
2023/02/14 11:52:54;;;;;;;1999.90;999.90;;;13.40;99.90;;;;;;5082120;28;20023;-81
2023/02/14 11:55:29;;;;;;;1999.90;999.90;;;13.40;99.90;;;;;;5081508;28;20047;-80
2023/02/14 11:57:56;;;;;;;1999.90;999.90;;;13.20;99.90;;;;;;5088187;28;20396;-78
2023/02/14 12:00:25;;;;;;;1999.90;999.90;;;13.40;99.90;;;;;;5083278;28;20248;-73
2023/02/14 12:02:51;;;;;;;1999.90;999.90;;;13.50;99.90;;;;;;5081858;28;20028;-82
2023/02/14 12:05:22;;;;;;;1999.90;999.90;;;13.60;99.90;;;;;;5089196;28;20058;-81
2023/02/14 12:07:51;;;;;;;1999.90;999.90;;;13.40;99.90;;;;;;5086722;28;20429;-80
2023/02/14 12:10:19;;;;;;;1999.90;999.90;;;13.20;99.90;;;;;;5081041;28;20077;-73
2023/02/14 12:12:52;;;;;;;1999.90;999.90;;;13.20;99.90;;;;;;5080616;28;20074;-80
2023/02/14 12:15:24;;;;;;;1999.90;999.90;;;13.40;99.90;;;;;;5089642;28;20035;-80
2023/02/14 12:17:57;;;;;;;1999.90;999.90;;;13.70;99.90;;;;;;5089513;28;20116;-78
2023/02/14 12:21:05;;;;;;;1999.90;999.90;;;13.60;99.90;;;;;;5090033;28;20048;-75
2023/02/14 12:23:46;;;;;;;1999.90;999.90;;;13.80;99.90;;;;;;4984795;28;20030;-73
2023/02/14 12:26:17;;;;;;;1999.90;999.90;;;13.60;99.90;;;;;;4985376;28;20041;-73
2023/02/14 12:28:49;;;;;;;1999.90;999.90;;;13.50;99.90;;;;;;4986898;28;20042;-80
2023/02/14 12:31:17;;;;;;;1999.90;999.90;;;13.10;99.90;;;;;;4986509;28;20425;-76
2023/02/14 12:33:43;;;;;;;1999.90;999.90;;;12.90;99.90;;;;;;4988180;28;20034;-78
2023/02/14 12:36:25;;;;;;;1999.90;999.90;;;13.20;99.90;;;;;;4988425;28;20420;-73
2023/02/14 12:39:09;;;;;;;1999.90;999.90;;;13.50;99.90;;;;;;4990729;28;20050;-72